This is the latest recevied weather packets stored in our database for station/object G6LTT. If no packets are shown the sender has not sent any weather packets the latest 10 day(s).
| Time | Temp. | Humidity | Pressure | Rain* | Wind** | Luminosity | Snow |
|---|---|---|---|---|---|---|---|
| 1777473368 | 17.22° C | 33% | 1052.6 hPa | 0 mm | - | - | - |
| 1777468277 | 17.78° C | 31% | 1052.3 hPa | 0 mm | - | - | - |
| 1777467375 | 17.78° C | 31% | 1052.3 hPa | 0 mm | - | - | - |
| 1777463643 | 16.67° C | 33% | 1053.1 hPa | 0 mm | - | - | - |
| 1777462563 | 16.67° C | 33% | 1053 hPa | 0 mm | - | - | - |
| 1777460043 | 16.67° C | 34% | 1053.2 hPa | 0 mm | - | - | - |
| 1777458963 | 16.11° C | 35% | 1053 hPa | 0 mm | - | - | - |
| 1777457343 | 15.56° C | 36% | 1053.4 hPa | 0 mm | - | - | - |
| 1777448703 | 12.22° C | 58% | 1053 hPa | 0 mm | - | - | - |
| 1777447083 | 11.11° C | 64% | 1053.1 hPa | 0 mm | - | - | - |
| 1777443483 | 8.89° C | 72% | 1052.5 hPa | 0 mm | - | - | - |
| 1777441503 | 8.33° C | 74% | 1052.2 hPa | 0 mm | - | - | - |
| 1777441095 | 8.33° C | 74% | 1052.4 hPa | 0 mm | - | - | - |
| 1777438443 | 8.33° C | 75% | 1052.5 hPa | 0 mm | - | - | - |
| 1777435203 | 8.33° C | 76% | 1052.1 hPa | 0 mm | - | - | - |
| 1777433763 | 7.78° C | 78% | 1052 hPa | 0 mm | - | - | - |
| 1777430163 | 7.22° C | 80% | 1052.1 hPa | 0 mm | - | - | - |
| 1777425617 | 6.67° C | 79% | 1052.6 hPa | 0 mm | - | - | - |
| 1777424043 | 6.67° C | 78% | 1052.7 hPa | 0 mm | - | - | - |
| 1777420036 | 7.22° C | 71% | 1053.2 hPa | 0 mm | - | - | - |
| 1777418283 | 7.22° C | 68% | 1053 hPa | 0 mm | - | - | - |
| 1777413243 | 8.33° C | 60% | 1053.4 hPa | 0 mm | - | - | - |
| 1777409643 | 9.44° C | 54% | 1053.3 hPa | 0 mm | - | - | - |
| 1777408023 | 10° C | 50% | 1053.3 hPa | 0 mm | - | - | - |
| 1777407483 | 10° C | 48% | 1053.3 hPa | 0 mm | - | - | - |
* Rain latest hour (hover to see other rain measurements)
** Current wind speed in m/s (hover to see current wind gust speed)